createdAt,value
2022-11-12T00:00:37.556Z,24.02
2022-11-12T00:03:04.101Z,24.00
2022-11-12T00:05:30.563Z,23.98
2022-11-12T00:07:57.031Z,23.96
2022-11-12T00:10:23.505Z,23.91
2022-11-12T00:12:50.052Z,23.86
2022-11-12T00:15:16.553Z,23.87
2022-11-12T00:17:43.669Z,23.85
2022-11-12T00:20:10.625Z,23.83
2022-11-12T00:22:37.112Z,23.77
2022-11-12T00:25:04.173Z,23.79
2022-11-12T00:27:32.196Z,23.76
2022-11-12T00:29:58.672Z,23.71
2022-11-12T00:32:25.217Z,23.70
2022-11-12T00:34:51.672Z,23.67
2022-11-12T00:37:18.734Z,23.66
2022-11-12T00:39:45.427Z,23.63
2022-11-12T00:42:11.888Z,23.62
2022-11-12T00:44:38.381Z,23.62
2022-11-12T00:47:04.924Z,23.62
2022-11-12T00:49:31.391Z,23.58
2022-11-12T00:51:57.927Z,23.58
2022-11-12T00:54:24.395Z,23.56
2022-11-12T00:56:50.864Z,23.52
2022-11-12T00:59:17.327Z,23.52
2022-11-12T01:01:43.802Z,23.52
2022-11-12T01:04:10.522Z,23.50
2022-11-12T01:06:39.461Z,23.47
2022-11-12T01:09:05.970Z,23.44
2022-11-12T01:11:32.439Z,23.41
2022-11-12T01:14:04.092Z,23.39
2022-11-12T01:16:32.442Z,23.38
2022-11-12T01:19:00.368Z,23.30
2022-11-12T01:21:28.234Z,23.34
2022-11-12T01:23:54.730Z,23.32
2022-11-12T01:26:22.217Z,23.30
2022-11-12T01:28:48.706Z,23.30
2022-11-12T01:31:19.231Z,23.27
2022-11-12T01:33:49.856Z,23.23
2022-11-12T01:36:16.935Z,23.21
2022-11-12T01:38:43.883Z,23.21
2022-11-12T01:41:15.427Z,23.18
2022-11-12T01:43:41.882Z,23.19
2022-11-12T01:46:22.390Z,23.16
2022-11-12T01:48:53.593Z,23.13
2022-11-12T01:51:21.331Z,23.12
2022-11-12T01:53:48.612Z,23.09
2022-11-12T01:56:15.079Z,23.09
2022-11-12T01:58:41.546Z,22.98
2022-11-12T02:01:08.077Z,22.99
2022-11-12T02:03:34.621Z,22.97
2022-11-12T02:06:03.486Z,22.93
2022-11-12T02:08:29.959Z,22.94
2022-11-12T02:10:56.477Z,22.88
2022-11-12T02:13:41.297Z,22.86
2022-11-12T02:16:08.151Z,22.82
2022-11-12T02:18:34.779Z,22.81
2022-11-12T02:21:04.573Z,22.80
2022-11-12T02:23:32.318Z,22.79
2022-11-12T02:26:01.905Z,22.75
2022-11-12T02:28:29.065Z,22.75
2022-11-12T02:30:55.636Z,22.70
2022-11-12T02:33:22.188Z,22.69
2022-11-12T02:35:48.660Z,22.67
2022-11-12T02:38:15.135Z,22.64
2022-11-12T02:40:41.601Z,22.63
2022-11-12T02:43:08.062Z,22.59
2022-11-12T02:45:34.528Z,22.55
2022-11-12T02:48:01.014Z,22.53
2022-11-12T02:50:27.497Z,22.52
2022-11-12T02:52:53.966Z,22.50
2022-11-12T02:55:20.453Z,22.49
2022-11-12T02:57:46.900Z,22.47
2022-11-12T03:00:13.554Z,22.45
2022-11-12T03:02:42.638Z,22.43
2022-11-12T03:05:12.315Z,22.41
2022-11-12T03:07:39.093Z,22.39
2022-11-12T03:10:06.083Z,22.38
2022-11-12T03:12:32.707Z,22.37
2022-11-12T03:14:59.235Z,22.36
2022-11-12T03:17:25.748Z,22.35
2022-11-12T03:19:52.237Z,22.33
2022-11-12T03:22:18.694Z,22.32
2022-11-12T03:24:45.147Z,22.30
2022-11-12T03:27:11.602Z,22.28
2022-11-12T03:29:38.124Z,22.27
2022-11-12T03:32:04.737Z,22.25
2022-11-12T03:34:31.193Z,22.24
2022-11-12T03:36:57.672Z,22.22
2022-11-12T03:39:24.130Z,22.19
2022-11-12T03:41:50.594Z,22.17
2022-11-12T03:44:17.284Z,22.15
2022-11-12T03:46:44.488Z,22.13
2022-11-12T03:49:11.183Z,22.10
2022-11-12T03:51:37.683Z,22.09
2022-11-12T03:54:04.286Z,22.07
2022-11-12T03:56:30.742Z,22.04
2022-11-12T03:58:57.211Z,22.04
2022-11-12T04:01:23.757Z,22.03
2022-11-12T04:03:50.316Z,22.01
2022-11-12T04:06:35.254Z,21.99
2022-11-12T04:09:01.791Z,21.97
2022-11-12T04:11:28.274Z,21.93
2022-11-12T04:13:55.044Z,21.92
2022-11-12T04:16:40.688Z,21.93
2022-11-12T04:19:27.265Z,21.91
2022-11-12T04:21:55.920Z,21.92
2022-11-12T04:24:45.005Z,21.89
2022-11-12T04:27:14.968Z,21.87
2022-11-12T04:30:00.826Z,21.86
2022-11-12T04:32:27.636Z,21.84
2022-11-12T04:34:54.467Z,21.84
2022-11-12T04:37:23.594Z,21.83
2022-11-12T04:39:50.979Z,21.78
2022-11-12T04:42:36.049Z,21.77
2022-11-12T04:45:04.677Z,21.74
2022-11-12T04:47:36.001Z,21.72
2022-11-12T04:50:04.476Z,21.71
2022-11-12T04:52:31.052Z,21.68
2022-11-12T04:54:57.652Z,21.67
2022-11-12T04:57:24.326Z,21.66
2022-11-12T04:59:50.820Z,21.62
2022-11-12T05:02:17.487Z,21.61
2022-11-12T05:04:44.019Z,21.62
2022-11-12T05:07:10.621Z,21.58
2022-11-12T05:09:37.166Z,21.56
2022-11-12T05:12:03.768Z,21.58
2022-11-12T05:14:30.248Z,21.60
2022-11-12T05:16:56.763Z,21.60
2022-11-12T05:19:23.230Z,21.59
2022-11-12T05:22:17.424Z,21.60
2022-11-12T05:24:53.848Z,21.59
2022-11-12T05:27:20.660Z,21.58
2022-11-12T05:29:47.126Z,21.58
2022-11-12T05:32:15.131Z,21.57
2022-11-12T05:34:41.737Z,21.56
2022-11-12T05:37:08.612Z,21.55
2022-11-12T05:39:35.070Z,21.53
2022-11-12T05:42:16.587Z,21.52
2022-11-12T05:44:43.109Z,21.50
2022-11-12T05:47:09.650Z,21.48
2022-11-12T05:49:36.099Z,21.48
2022-11-12T05:52:02.557Z,21.47
2022-11-12T05:54:29.023Z,21.48
2022-11-12T05:56:55.501Z,21.48
2022-11-12T05:59:22.311Z,21.46
2022-11-12T06:01:48.785Z,21.46
2022-11-12T06:04:15.474Z,21.45
2022-11-12T06:06:42.122Z,21.46
2022-11-12T06:09:08.806Z,21.44
2022-11-12T06:11:35.374Z,21.45
2022-11-12T06:14:01.999Z,21.43
2022-11-12T06:16:28.887Z,21.44
2022-11-12T06:18:55.369Z,21.44
2022-11-12T06:21:24.486Z,21.46
2022-11-12T06:23:53.070Z,21.44
2022-11-12T06:26:19.795Z,21.43
2022-11-12T06:28:46.684Z,21.43
2022-11-12T06:31:13.525Z,21.39
2022-11-12T06:33:40.030Z,21.38
2022-11-12T06:36:06.978Z,21.38
2022-11-12T06:38:34.336Z,21.37
2022-11-12T06:41:00.878Z,21.36
2022-11-12T06:43:28.289Z,21.37
2022-11-12T06:45:54.749Z,21.40
2022-11-12T06:48:21.509Z,21.39
2022-11-12T06:50:47.961Z,21.38
2022-11-12T06:53:14.439Z,21.40
2022-11-12T06:55:40.927Z,21.39
2022-11-12T06:58:07.407Z,21.40
2022-11-12T07:00:33.916Z,21.38
2022-11-12T07:03:00.397Z,21.33
2022-11-12T07:05:26.893Z,21.38
2022-11-12T07:07:54.459Z,21.37
2022-11-12T07:10:20.951Z,21.37
2022-11-12T07:12:53.008Z,21.36
2022-11-12T07:15:19.933Z,21.35
2022-11-12T07:17:46.631Z,21.34
2022-11-12T07:20:13.457Z,21.34
2022-11-12T07:22:39.954Z,21.34
2022-11-12T07:25:06.606Z,21.35
2022-11-12T07:27:33.072Z,21.30
2022-11-12T07:29:59.539Z,21.32
2022-11-12T07:32:26.070Z,21.30
2022-11-12T07:34:52.523Z,21.29
2022-11-12T07:37:19.001Z,21.29
2022-11-12T07:39:45.459Z,21.28
2022-11-12T07:42:11.927Z,21.30
2022-11-12T07:44:38.415Z,21.26
2022-11-12T07:47:04.893Z,21.25
2022-11-12T07:49:31.354Z,21.28
2022-11-12T07:51:57.809Z,21.39
2022-11-12T07:54:24.383Z,21.61
2022-11-12T07:56:50.852Z,21.81
2022-11-12T07:59:17.334Z,21.88
2022-11-12T08:01:44.949Z,21.97
2022-11-12T08:04:12.065Z,22.07
2022-11-12T08:06:38.669Z,22.21
2022-11-12T08:09:06.508Z,22.25
2022-11-12T08:11:33.171Z,22.31
2022-11-12T08:13:59.867Z,22.29
2022-11-12T08:16:26.364Z,22.18
2022-11-12T08:18:55.520Z,22.18
2022-11-12T08:21:21.999Z,22.24
2022-11-12T08:23:48.547Z,22.23
2022-11-12T08:26:16.240Z,22.24
2022-11-12T08:28:42.728Z,22.24
2022-11-12T08:31:11.175Z,22.15
2022-11-12T08:33:37.666Z,22.09
2022-11-12T08:36:08.249Z,22.13
2022-11-12T08:38:34.794Z,22.17
2022-11-12T08:41:05.147Z,22.13
2022-11-12T08:43:31.637Z,22.08
2022-11-12T08:45:59.637Z,22.06
2022-11-12T08:48:26.470Z,21.92
2022-11-12T08:50:53.297Z,22.00
2022-11-12T08:53:21.072Z,21.98
2022-11-12T08:55:47.779Z,21.93
2022-11-12T08:58:14.266Z,21.90
2022-11-12T09:00:43.089Z,21.86
2022-11-12T09:03:14.307Z,21.94
2022-11-12T09:05:40.758Z,22.01
2022-11-12T09:08:11.480Z,22.08
2022-11-12T09:10:38.140Z,22.20
2022-11-12T09:13:04.809Z,22.35
2022-11-12T09:15:37.493Z,22.42
2022-11-12T09:18:06.794Z,22.52
2022-11-12T09:20:33.285Z,22.59
2022-11-12T09:23:07.277Z,21.27
2022-11-12T09:25:33.833Z,19.86
2022-11-12T09:28:08.416Z,19.52
2022-11-12T09:30:36.010Z,19.58
2022-11-12T09:33:02.465Z,19.48
2022-11-12T09:35:29.328Z,19.32
2022-11-12T09:37:56.747Z,19.73
2022-11-12T09:40:23.218Z,19.61
2022-11-12T09:42:52.690Z,19.51
2022-11-12T09:45:24.858Z,19.35
2022-11-12T09:47:54.275Z,19.35
2022-11-12T09:50:21.905Z,19.21
2022-11-12T09:52:48.887Z,19.33
2022-11-12T09:55:36.262Z,18.86
2022-11-12T09:58:05.796Z,19.31
2022-11-12T10:00:32.252Z,19.99
2022-11-12T10:03:02.384Z,20.02
2022-11-12T10:05:47.554Z,20.29
2022-11-12T10:08:35.992Z,20.59
2022-11-12T10:11:07.384Z,20.78
2022-11-12T10:13:47.412Z,20.89
2022-11-12T10:16:41.998Z,21.03
2022-11-12T10:19:34.678Z,21.36
2022-11-12T10:22:31.840Z,21.50
2022-11-12T10:24:58.318Z,21.66
2022-11-12T10:27:28.439Z,21.59
2022-11-12T10:30:05.989Z,21.58
2022-11-12T10:32:32.532Z,21.60
2022-11-12T10:34:58.988Z,21.57
2022-11-12T10:37:59.814Z,21.57
2022-11-12T10:40:37.448Z,21.57
2022-11-12T10:43:21.112Z,21.55
2022-11-12T10:45:48.866Z,21.56
2022-11-12T10:48:27.569Z,21.60
2022-11-12T10:50:54.458Z,21.65
2022-11-12T10:53:34.737Z,21.62
2022-11-12T10:56:02.945Z,21.69
2022-11-12T10:58:29.709Z,21.71
2022-11-12T11:01:04.272Z,21.72
2022-11-12T11:03:34.918Z,21.68
2022-11-12T11:06:23.569Z,21.66
2022-11-12T11:08:54.079Z,21.65
2022-11-12T11:11:28.014Z,21.65
2022-11-12T11:13:56.130Z,21.68
2022-11-12T11:16:24.428Z,21.72
2022-11-12T11:18:58.660Z,21.86
2022-11-12T11:21:50.356Z,22.02
2022-11-12T11:24:36.804Z,22.16
2022-11-12T11:27:32.069Z,22.33
2022-11-12T11:30:11.182Z,22.41
2022-11-12T11:33:00.825Z,22.43
2022-11-12T11:35:32.444Z,22.44
2022-11-12T11:38:17.137Z,22.44
2022-11-12T11:40:58.906Z,22.40
2022-11-12T11:43:45.593Z,22.36
2022-11-12T11:46:31.508Z,22.34
2022-11-12T11:49:13.041Z,22.35
2022-11-12T11:51:42.338Z,22.29
2022-11-12T11:54:23.992Z,22.34
2022-11-12T11:56:50.582Z,22.33
2022-11-12T11:59:27.703Z,22.31
2022-11-12T12:02:20.370Z,22.29
2022-11-12T12:04:51.831Z,22.27
2022-11-12T12:07:22.261Z,22.21
2022-11-12T12:10:14.202Z,22.18
2022-11-12T12:12:51.231Z,22.15
2022-11-12T12:15:51.437Z,22.13
2022-11-12T12:18:27.552Z,22.11
2022-11-12T12:20:57.573Z,22.08
2022-11-12T12:23:37.537Z,22.06
2022-11-12T12:26:07.887Z,22.07
2022-11-12T12:28:45.479Z,22.10
2022-11-12T12:31:18.601Z,22.15
2022-11-12T12:33:53.482Z,22.15
2022-11-12T12:36:42.363Z,22.17
2022-11-12T12:39:26.202Z,22.18
2022-11-12T12:42:01.973Z,22.19
2022-11-12T12:44:49.508Z,22.20
2022-11-12T12:47:16.005Z,22.17
2022-11-12T12:49:42.583Z,22.15
2022-11-12T12:52:12.954Z,22.14
2022-11-12T12:54:39.398Z,22.20
2022-11-12T12:57:28.141Z,22.36
2022-11-12T13:00:26.742Z,22.39
2022-11-12T13:02:53.325Z,22.44
2022-11-12T13:05:36.197Z,22.42
2022-11-12T13:08:08.485Z,22.45
2022-11-12T13:10:53.619Z,22.44
2022-11-12T13:13:19.980Z,22.37
2022-11-12T13:15:48.519Z,22.28
2022-11-12T13:18:40.571Z,22.23
2022-11-12T13:21:07.981Z,22.19
2022-11-12T13:24:06.807Z,22.15
2022-11-12T13:26:39.427Z,22.13
2022-11-12T13:29:25.488Z,22.11
2022-11-12T13:32:29.654Z,22.09
2022-11-12T13:35:22.409Z,22.07
2022-11-12T13:38:01.522Z,22.03
2022-11-12T13:40:33.667Z,22.05
2022-11-12T13:43:10.358Z,22.05
2022-11-12T13:45:46.884Z,22.07
2022-11-12T13:48:27.911Z,22.08
2022-11-12T13:50:59.363Z,22.10
2022-11-12T13:53:26.962Z,22.09
2022-11-12T13:55:53.773Z,22.09
2022-11-12T13:58:30.772Z,22.11
2022-11-12T14:00:58.603Z,22.12
2022-11-12T14:03:27.206Z,22.11
2022-11-12T14:05:53.858Z,22.14
2022-11-12T14:08:38.691Z,22.15
2022-11-12T14:11:46.893Z,22.15
2022-11-12T14:14:25.244Z,22.16
2022-11-12T14:17:10.462Z,22.15
2022-11-12T14:20:00.102Z,22.13
2022-11-12T14:22:26.636Z,22.13
2022-11-12T14:24:58.790Z,22.11
2022-11-12T14:27:28.142Z,22.13
2022-11-12T14:30:17.709Z,22.11
2022-11-12T14:32:46.051Z,22.11
2022-11-12T14:35:30.418Z,22.09
2022-11-12T14:38:09.267Z,22.06
2022-11-12T14:40:37.595Z,22.04
2022-11-12T14:43:04.080Z,22.01
2022-11-12T14:45:35.050Z,22.00
2022-11-12T14:48:01.719Z,21.97
2022-11-12T14:50:35.857Z,21.93
2022-11-12T14:53:08.432Z,21.93
2022-11-12T14:55:36.387Z,21.89
2022-11-12T14:58:03.468Z,21.88
2022-11-12T15:00:34.148Z,21.88
2022-11-12T15:03:01.258Z,21.86
2022-11-12T15:05:27.875Z,21.86
2022-11-12T15:07:54.414Z,21.86
2022-11-12T15:10:39.611Z,21.87
2022-11-12T15:13:10.658Z,21.86
2022-11-12T15:16:07.404Z,21.87
2022-11-12T15:18:33.979Z,21.86
2022-11-12T15:21:20.629Z,21.86
2022-11-12T15:23:51.987Z,21.88
2022-11-12T15:26:35.429Z,21.89
2022-11-12T15:29:10.937Z,21.91
2022-11-12T15:31:55.869Z,21.88
2022-11-12T15:34:28.247Z,21.94
2022-11-12T15:36:55.767Z,21.94
2022-11-12T15:39:22.463Z,21.95
2022-11-12T15:41:48.939Z,21.95
2022-11-12T15:44:15.419Z,21.95
2022-11-12T15:46:41.878Z,21.94
2022-11-12T15:49:12.160Z,21.94
2022-11-12T15:51:38.605Z,21.93
2022-11-12T15:54:05.083Z,21.85
2022-11-12T15:56:31.563Z,21.85
2022-11-12T15:58:58.182Z,21.82
2022-11-12T16:01:24.698Z,21.79
2022-11-12T16:03:51.250Z,21.77
2022-11-12T16:06:17.758Z,21.76
2022-11-12T16:08:44.335Z,21.74
2022-11-12T16:11:30.763Z,21.72
2022-11-12T16:13:57.247Z,21.72
2022-11-12T16:16:23.698Z,21.68
2022-11-12T16:18:50.155Z,21.68
2022-11-12T16:21:20.699Z,21.69
2022-11-12T16:23:47.505Z,21.68
2022-11-12T16:26:15.214Z,21.67
2022-11-12T16:28:41.764Z,21.73
2022-11-12T16:31:08.219Z,21.75
2022-11-12T16:33:35.787Z,21.79
2022-11-12T16:36:02.266Z,21.81
2022-11-12T16:38:28.747Z,21.85
2022-11-12T16:40:55.211Z,21.87
2022-11-12T16:43:21.682Z,21.90
2022-11-12T16:45:48.136Z,21.91
2022-11-12T16:48:21.510Z,21.93
2022-11-12T16:50:48.252Z,21.95
2022-11-12T16:53:14.749Z,21.97
2022-11-12T16:55:41.455Z,21.98
2022-11-12T16:58:10.477Z,21.98
2022-11-12T17:00:36.933Z,21.98
2022-11-12T17:03:03.481Z,21.95
2022-11-12T17:05:29.954Z,21.94
2022-11-12T17:07:57.164Z,21.92
2022-11-12T17:10:23.998Z,21.89
2022-11-12T17:12:51.123Z,21.87
2022-11-12T17:15:17.659Z,21.90
2022-11-12T17:17:44.146Z,21.88
2022-11-12T17:20:10.762Z,21.91
2022-11-12T17:22:37.359Z,21.88
2022-11-12T17:25:04.413Z,21.89
2022-11-12T17:27:31.071Z,21.91
2022-11-12T17:29:57.556Z,21.93
2022-11-12T17:32:24.540Z,21.92
2022-11-12T17:34:51.034Z,21.90
2022-11-12T17:37:17.490Z,21.87
2022-11-12T17:39:44.508Z,21.84
2022-11-12T17:42:10.981Z,21.80
2022-11-12T17:44:37.514Z,21.78
2022-11-12T17:47:04.023Z,21.76
2022-11-12T17:49:30.496Z,21.72
2022-11-12T17:51:56.953Z,21.74
2022-11-12T17:54:23.429Z,21.73
2022-11-12T17:56:49.962Z,21.73
2022-11-12T17:59:16.504Z,21.76
2022-11-12T18:01:43.043Z,21.77
2022-11-12T18:04:09.898Z,21.77
2022-11-12T18:06:36.453Z,21.76
2022-11-12T18:09:17.010Z,21.79
2022-11-12T18:11:45.515Z,21.80
2022-11-12T18:14:12.058Z,21.82
2022-11-12T18:16:38.541Z,21.80
2022-11-12T18:19:05.136Z,21.79
2022-11-12T18:21:31.588Z,21.79
2022-11-12T18:23:58.074Z,21.73
2022-11-12T18:26:24.546Z,21.75
2022-11-12T18:28:52.181Z,21.71
2022-11-12T18:31:18.787Z,21.69
2022-11-12T18:33:45.284Z,21.66
2022-11-12T18:36:18.965Z,21.62
2022-11-12T18:38:46.787Z,21.61
2022-11-12T18:41:14.610Z,21.59
2022-11-12T18:43:41.155Z,21.59
2022-11-12T18:46:08.341Z,21.60
2022-11-12T18:48:35.335Z,21.61
2022-11-12T18:51:07.191Z,21.65
2022-11-12T18:53:33.827Z,21.66
2022-11-12T18:56:05.095Z,21.71
2022-11-12T18:58:35.161Z,21.76
2022-11-12T19:01:06.797Z,21.79
2022-11-12T19:03:33.306Z,21.82
2022-11-12T19:06:00.597Z,21.86
2022-11-12T19:08:27.062Z,21.86
2022-11-12T19:11:00.424Z,21.88
2022-11-12T19:13:27.337Z,21.92
2022-11-12T19:15:54.061Z,21.92
2022-11-12T19:18:20.538Z,21.94
2022-11-12T19:20:47.771Z,21.95
2022-11-12T19:23:14.278Z,21.95
2022-11-12T19:25:40.751Z,21.97
2022-11-12T19:28:07.221Z,21.95
2022-11-12T19:30:33.698Z,21.94
2022-11-12T19:33:00.169Z,21.91
2022-11-12T19:35:26.628Z,21.89
2022-11-12T19:37:53.420Z,21.83
2022-11-12T19:40:19.925Z,21.81
2022-11-12T19:42:47.954Z,21.76
2022-11-12T19:45:14.510Z,21.72
2022-11-12T19:47:41.052Z,21.71
2022-11-12T19:50:07.983Z,21.67
2022-11-12T19:52:34.449Z,21.65
2022-11-12T19:55:00.981Z,21.62
2022-11-12T19:57:29.026Z,21.61
2022-11-12T19:59:55.506Z,21.61
2022-11-12T20:02:21.972Z,21.61
2022-11-12T20:04:48.462Z,21.62
2022-11-12T20:07:14.985Z,21.60
2022-11-12T20:09:41.562Z,21.65
2022-11-12T20:12:08.032Z,21.68
2022-11-12T20:14:34.497Z,21.70
2022-11-12T20:17:00.966Z,21.72
2022-11-12T20:19:27.854Z,21.75
2022-11-12T20:21:54.320Z,21.77
2022-11-12T20:24:20.848Z,21.79
2022-11-12T20:26:47.341Z,21.80
2022-11-12T20:29:13.842Z,21.83
2022-11-12T20:31:41.887Z,21.85
2022-11-12T20:34:08.378Z,21.88
2022-11-12T20:36:34.858Z,21.88
2022-11-12T20:39:02.143Z,21.88
2022-11-12T20:41:29.382Z,21.87
2022-11-12T20:43:57.621Z,21.91
2022-11-12T20:46:27.237Z,21.93
2022-11-12T20:48:56.387Z,21.93
2022-11-12T20:51:25.459Z,21.92
2022-11-12T20:53:58.975Z,21.92
2022-11-12T20:56:26.855Z,21.91
2022-11-12T20:58:53.335Z,21.91
2022-11-12T21:01:21.245Z,21.86
2022-11-12T21:03:47.958Z,21.84
2022-11-12T21:06:16.112Z,21.81
2022-11-12T21:08:42.823Z,21.76
2022-11-12T21:11:16.677Z,21.72
2022-11-12T21:13:44.613Z,21.71
2022-11-12T21:16:11.799Z,21.68
2022-11-12T21:18:38.552Z,21.67
2022-11-12T21:21:06.856Z,21.62
2022-11-12T21:23:34.544Z,21.62
2022-11-12T21:26:04.167Z,21.58
2022-11-12T21:28:38.307Z,21.55
2022-11-12T21:31:09.683Z,21.53
2022-11-12T21:33:36.135Z,21.49
2022-11-12T21:36:03.501Z,21.47
2022-11-12T21:38:30.371Z,21.47
2022-11-12T21:41:10.493Z,21.45
2022-11-12T21:43:38.461Z,21.42
2022-11-12T21:46:14.927Z,21.40
2022-11-12T21:48:41.449Z,21.38
2022-11-12T21:51:09.814Z,21.36
2022-11-12T21:53:36.294Z,21.36
2022-11-12T21:56:21.459Z,21.33
2022-11-12T21:58:47.922Z,21.30
2022-11-12T22:01:21.890Z,21.28
2022-11-12T22:03:49.455Z,21.27
2022-11-12T22:06:16.144Z,21.29
2022-11-12T22:08:42.654Z,21.28
2022-11-12T22:11:13.156Z,21.27
2022-11-12T22:13:39.972Z,21.26
2022-11-12T22:16:07.204Z,21.25
2022-11-12T22:18:36.819Z,21.24
2022-11-12T22:21:05.214Z,21.24
2022-11-12T22:23:37.661Z,21.20
2022-11-12T22:26:05.039Z,21.21
2022-11-12T22:28:31.765Z,21.18
2022-11-12T22:31:06.182Z,21.16
2022-11-12T22:33:32.835Z,21.14
2022-11-12T22:36:04.862Z,21.17
2022-11-12T22:38:38.837Z,21.20
2022-11-12T22:41:09.450Z,21.21
2022-11-12T22:43:38.740Z,21.18
2022-11-12T22:46:05.257Z,21.18
2022-11-12T22:48:31.887Z,21.18
2022-11-12T22:51:01.943Z,21.18
2022-11-12T22:53:28.699Z,21.17
2022-11-12T22:55:55.195Z,21.17
2022-11-12T22:58:21.734Z,21.17
2022-11-12T23:00:48.205Z,21.18
2022-11-12T23:03:14.662Z,21.16
2022-11-12T23:05:42.452Z,21.16
2022-11-12T23:08:08.989Z,21.16
2022-11-12T23:10:35.492Z,21.14
2022-11-12T23:13:01.964Z,21.13
2022-11-12T23:15:31.266Z,21.15
2022-11-12T23:17:57.735Z,21.13
2022-11-12T23:20:24.267Z,21.13
2022-11-12T23:22:51.209Z,21.12
2022-11-12T23:25:17.670Z,21.12
2022-11-12T23:27:44.129Z,21.08
2022-11-12T23:30:11.130Z,21.04
2022-11-12T23:32:37.611Z,20.99
2022-11-12T23:35:04.270Z,20.95
2022-11-12T23:37:30.722Z,20.97
2022-11-12T23:39:57.256Z,20.97
2022-11-12T23:42:23.735Z,20.97
2022-11-12T23:44:50.227Z,20.95
2022-11-12T23:47:16.691Z,20.93
2022-11-12T23:49:43.175Z,20.94
2022-11-12T23:52:09.653Z,20.91
2022-11-12T23:54:36.307Z,20.97
2022-11-12T23:57:02.809Z,20.94
2022-11-12T23:59:29.286Z,20.93
